Time;durP1;ratioP1;P1;durP2;ratioP2;P2;SDS_P1;SDS_P2;PMS_P1;PMS_P2;Temp;Humidity;BMP_temperature;BMP_pressure;BME280_temperature;BME280_humidity;BME280_pressure;Samples;Min_cycle;Max_cycle;Signal;HPM_P1;HPM_P2
2023/11/18 00:00:51;;;;;;;;;11.33;11.00;;;;;;;;5049185;28;45561;-70
2023/11/18 00:03:16;;;;;;;;;13.00;13.00;;;;;;;;5056502;28;45462;-73
2023/11/18 00:05:42;;;;;;;;;16.50;11.50;;;;;;;;5056479;28;46096;-71
2023/11/18 00:08:07;;;;;;;;;14.00;11.00;;;;;;;;5054307;28;45458;-73
2023/11/18 00:10:32;;;;;;;;;14.67;11.67;;;;;;;;5056064;28;45595;-71
2023/11/18 00:12:57;;;;;;;;;11.00;11.00;;;;;;;;5048305;28;45393;-70
2023/11/18 00:15:23;;;;;;;;;14.00;12.00;;;;;;;;5047486;28;47566;-72
2023/11/18 00:17:48;;;;;;;;;14.33;9.67;;;;;;;;5051960;28;45487;-73
2023/11/18 00:20:13;;;;;;;;;13.25;13.25;;;;;;;;5047629;28;45335;-72
2023/11/18 00:22:39;;;;;;;;;14.75;11.50;;;;;;;;5057099;28;45361;-74
2023/11/18 00:25:05;;;;;;;;;15.00;12.25;;;;;;;;5042571;28;46491;-71
2023/11/18 00:27:30;;;;;;;;;14.75;10.75;;;;;;;;5053138;28;45320;-71
2023/11/18 00:29:55;;;;;;;;;13.25;10.75;;;;;;;;5044341;28;45342;-73
2023/11/18 00:32:21;;;;;;;;;13.00;10.00;;;;;;;;5048147;28;45295;-70
2023/11/18 00:34:46;;;;;;;;;17.75;13.50;;;;;;;;5052649;28;46037;-72
2023/11/18 00:37:11;;;;;;;;;10.00;8.67;;;;;;;;5050139;28;45549;-74
2023/11/18 00:39:37;;;;;;;;;13.00;9.67;;;;;;;;5050731;28;45275;-72
2023/11/18 00:42:02;;;;;;;;;14.00;10.67;;;;;;;;5048994;28;45645;-73
2023/11/18 00:44:27;;;;;;;;;10.33;9.33;;;;;;;;5054712;28;46171;-71
2023/11/18 00:46:52;;;;;;;;;13.67;9.33;;;;;;;;5052545;28;45433;-70
2023/11/18 00:49:18;;;;;;;;;16.00;13.75;;;;;;;;5050047;28;45466;-71
2023/11/18 00:51:43;;;;;;;;;10.00;10.00;;;;;;;;5044911;28;45395;-73
2023/11/18 00:54:09;;;;;;;;;12.00;9.67;;;;;;;;5052882;28;46291;-71
2023/11/18 00:56:35;;;;;;;;;13.67;11.33;;;;;;;;5051965;28;45284;-73
2023/11/18 00:59:03;;;;;;;;;8.75;8.75;;;;;;;;5050610;28;45387;-70
2023/11/18 01:01:28;;;;;;;;;11.50;9.75;;;;;;;;5051157;28;45517;-70
2023/11/18 01:03:54;;;;;;;;;11.33;9.67;;;;;;;;5055756;28;45757;-72
2023/11/18 01:06:19;;;;;;;;;10.00;10.00;;;;;;;;5050210;28;45297;-74
2023/11/18 01:08:44;;;;;;;;;10.00;7.33;;;;;;;;5052000;28;45401;-72
2023/11/18 01:11:10;;;;;;;;;4.00;4.00;;;;;;;;5051784;28;45232;-73
2023/11/18 01:13:35;;;;;;;;;5.00;4.33;;;;;;;;5048651;28;46442;-70
2023/11/18 01:16:01;;;;;;;;;14.00;6.33;;;;;;;;5052852;28;45465;-71
2023/11/18 01:18:26;;;;;;;;;7.33;4.67;;;;;;;;5048139;28;45391;-73
2023/11/18 01:20:52;;;;;;;;;8.33;7.00;;;;;;;;5052026;28;45689;-73
2023/11/18 01:23:17;;;;;;;;;3.00;3.00;;;;;;;;5057126;28;46362;-72
2023/11/18 01:25:42;;;;;;;;;7.33;3.67;;;;;;;;5049059;28;45470;-74
2023/11/18 01:28:07;;;;;;;;;9.00;5.00;;;;;;;;5056317;28;45394;-71
2023/11/18 01:30:32;;;;;;;;;3.00;3.00;;;;;;;;5053300;28;45492;-72
2023/11/18 01:33:00;;;;;;;;;4.00;4.00;;;;;;;;5050384;28;45453;-71
2023/11/18 01:35:26;;;;;;;;;2.67;2.67;;;;;;;;5052495;28;45407;-72
2023/11/18 01:37:51;;;;;;;;;4.00;3.00;;;;;;;;5054596;28;45456;-70
2023/11/18 01:40:17;;;;;;;;;3.33;3.33;;;;;;;;5048513;28;45300;-72
2023/11/18 01:42:46;;;;;;;;;3.00;3.00;;;;;;;;5054837;28;47150;-70
2023/11/18 01:45:11;;;;;;;;;9.67;4.00;;;;;;;;5054836;28;45367;-72
2023/11/18 01:47:37;;;;;;;;;2.67;2.00;;;;;;;;5046707;28;45649;-73
2023/11/18 01:50:05;;;;;;;;;3.67;3.33;;;;;;;;5057521;28;45445;-70
2023/11/18 01:52:30;;;;;;;;;3.00;3.00;;;;;;;;5053447;28;47373;-71
2023/11/18 01:54:56;;;;;;;;;8.00;3.00;;;;;;;;5045496;28;45467;-71
2023/11/18 01:57:21;;;;;;;;;7.67;3.00;;;;;;;;5050728;28;45277;-71
2023/11/18 01:59:46;;;;;;;;;3.00;3.00;;;;;;;;5045126;28;45266;-72
2023/11/18 02:02:13;;;;;;;;;5.00;3.00;;;;;;;;5052476;28;46295;-73
2023/11/18 02:04:38;;;;;;;;;3.67;3.00;;;;;;;;5050980;28;45488;-71
2023/11/18 02:07:08;;;;;;;;;4.33;3.00;;;;;;;;5054747;28;45354;-72
2023/11/18 02:09:34;;;;;;;;;4.33;3.00;;;;;;;;5053351;28;45497;-72
2023/11/18 02:11:59;;;;;;;;;5.00;3.00;;;;;;;;5040868;28;46745;-74
2023/11/18 02:14:26;;;;;;;;;3.00;3.00;;;;;;;;5045707;28;46397;-71
2023/11/18 02:16:53;;;;;;;;;3.33;3.33;;;;;;;;5046854;28;45429;-73
2023/11/18 02:19:24;;;;;;;;;5.67;4.00;;;;;;;;5049473;28;45527;-71
2023/11/18 02:21:49;;;;;;;;;5.33;5.00;;;;;;;;5055055;28;47520;-74
2023/11/18 02:24:24;;;;;;;;;3.00;3.00;;;;;;;;5054435;28;45459;-74
2023/11/18 02:26:50;;;;;;;;;6.00;3.00;;;;;;;;5056521;28;45521;-73
2023/11/18 02:29:15;;;;;;;;;4.00;4.00;;;;;;;;5051902;28;45491;-74
2023/11/18 02:31:41;;;;;;;;;3.33;3.00;;;;;;;;5048888;28;46313;-71
2023/11/18 02:34:16;;;;;;;;;4.00;3.00;;;;;;;;5050798;28;45209;-71
2023/11/18 02:36:49;;;;;;;;;4.00;2.00;;;;;;;;5050357;28;45375;-71
2023/11/18 02:39:28;;;;;;;;;5.00;3.00;;;;;;;;5052341;28;46162;-73
2023/11/18 02:41:56;;;;;;;;;2.33;2.33;;;;;;;;5048151;28;46703;-73
2023/11/18 02:44:23;;;;;;;;;5.00;3.00;;;;;;;;5044979;28;45321;-71
2023/11/18 02:46:48;;;;;;;;;8.00;5.00;;;;;;;;5054050;28;45319;-72
2023/11/18 02:49:13;;;;;;;;;4.00;3.00;;;;;;;;5044872;28;45731;-71
2023/11/18 02:51:39;;;;;;;;;10.33;8.00;;;;;;;;5043406;28;45415;-70
2023/11/18 02:54:10;;;;;;;;;8.33;5.00;;;;;;;;5050001;28;45317;-71
2023/11/18 02:56:35;;;;;;;;;7.33;6.67;;;;;;;;5052516;28;45263;-70
2023/11/18 02:59:01;;;;;;;;;9.00;8.33;;;;;;;;5047497;28;45529;-70
2023/11/18 03:01:27;;;;;;;;;12.67;8.00;;;;;;;;5049688;28;46491;-70
2023/11/18 03:03:53;;;;;;;;;6.00;6.00;;;;;;;;5055562;28;45461;-71
2023/11/18 03:06:18;;;;;;;;;8.67;4.67;;;;;;;;5044451;28;45474;-70
2023/11/18 03:08:43;;;;;;;;;10.33;7.33;;;;;;;;5056341;28;45354;-71
2023/11/18 03:11:09;;;;;;;;;10.67;9.00;;;;;;;;5052117;28;46295;-70
2023/11/18 03:13:34;;;;;;;;;13.33;9.00;;;;;;;;5051907;28;45360;-70
2023/11/18 03:16:00;;;;;;;;;11.00;8.00;;;;;;;;5055082;28;45428;-71
2023/11/18 03:18:25;;;;;;;;;14.67;8.00;;;;;;;;5056735;28;45513;-70
2023/11/18 03:20:51;;;;;;;;;9.67;6.33;;;;;;;;5056960;28;46146;-74
2023/11/18 03:23:16;;;;;;;;;8.67;4.00;;;;;;;;5056839;28;45489;-73
2023/11/18 03:25:41;;;;;;;;;7.33;4.00;;;;;;;;5054422;28;45490;-70
2023/11/18 03:28:06;;;;;;;;;8.67;5.00;;;;;;;;5055974;28;45510;-71
2023/11/18 03:30:32;;;;;;;;;8.00;8.00;;;;;;;;5051415;28;45283;-73
2023/11/18 03:32:57;;;;;;;;;6.67;5.00;;;;;;;;5058731;28;45203;-70
2023/11/18 03:35:23;;;;;;;;;9.33;3.67;;;;;;;;5053599;28;45665;-73
2023/11/18 03:37:49;;;;;;;;;8.00;6.00;;;;;;;;5051621;28;45248;-69
2023/11/18 03:40:14;;;;;;;;;4.67;3.33;;;;;;;;5054186;28;46202;-71
2023/11/18 03:42:40;;;;;;;;;4.00;4.00;;;;;;;;5056834;28;45351;-70
2023/11/18 03:45:06;;;;;;;;;5.67;3.33;;;;;;;;5058660;28;45307;-73
2023/11/18 03:47:31;;;;;;;;;4.67;4.00;;;;;;;;5052554;28;45465;-70
2023/11/18 03:49:57;;;;;;;;;3.67;3.67;;;;;;;;5047181;28;46408;-70
2023/11/18 03:52:22;;;;;;;;;3.67;3.67;;;;;;;;5053084;28;45483;-72
2023/11/18 03:54:47;;;;;;;;;9.67;3.67;;;;;;;;5054985;28;45558;-70
2023/11/18 03:57:12;;;;;;;;;8.33;2.00;;;;;;;;5053937;28;45284;-73
2023/11/18 03:59:41;;;;;;;;;2.67;2.33;;;;;;;;5049255;28;46326;-70
2023/11/18 04:02:06;;;;;;;;;3.67;2.33;;;;;;;;5048432;28;45418;-70
2023/11/18 04:04:31;;;;;;;;;6.67;2.00;;;;;;;;5050818;28;45466;-70
2023/11/18 04:06:57;;;;;;;;;8.67;2.00;;;;;;;;5049893;28;45544;-71
2023/11/18 04:09:22;;;;;;;;;5.00;3.00;;;;;;;;5056361;28;46566;-70
2023/11/18 04:11:47;;;;;;;;;4.00;3.00;;;;;;;;5056766;28;45239;-70
2023/11/18 04:14:13;;;;;;;;;4.33;3.00;;;;;;;;5055526;28;45398;-71
2023/11/18 04:16:38;;;;;;;;;3.00;3.00;;;;;;;;5050273;28;45604;-70
2023/11/18 04:19:03;;;;;;;;;2.00;2.00;;;;;;;;5055329;28;46502;-70
2023/11/18 04:21:29;;;;;;;;;5.00;3.67;;;;;;;;5056246;28;45362;-73
2023/11/18 04:23:54;;;;;;;;;4.00;2.00;;;;;;;;5050019;28;45375;-70
2023/11/18 04:26:20;;;;;;;;;3.00;3.00;;;;;;;;5054363;28;45477;-72
2023/11/18 04:28:45;;;;;;;;;8.67;4.00;;;;;;;;5048639;28;46723;-71
2023/11/18 04:31:11;;;;;;;;;3.00;3.00;;;;;;;;5051251;28;45369;-71
2023/11/18 04:33:36;;;;;;;;;3.00;3.00;;;;;;;;5048326;28;46094;-71
2023/11/18 04:36:01;;;;;;;;;3.67;3.67;;;;;;;;5049120;28;45407;-72
2023/11/18 04:38:26;;;;;;;;;3.67;3.00;;;;;;;;5056523;28;45773;-71
2023/11/18 04:40:52;;;;;;;;;3.33;3.00;;;;;;;;5053816;28;45434;-70
2023/11/18 04:43:17;;;;;;;;;3.67;3.67;;;;;;;;5055532;28;45406;-71
2023/11/18 04:45:43;;;;;;;;;4.33;4.00;;;;;;;;5049203;28;45450;-71
2023/11/18 04:48:08;;;;;;;;;4.00;3.00;;;;;;;;5057583;28;46409;-72
2023/11/18 04:50:34;;;;;;;;;4.33;3.00;;;;;;;;5052688;28;45287;-72
2023/11/18 04:52:59;;;;;;;;;6.33;4.33;;;;;;;;5051632;28;45461;-73
2023/11/18 04:55:27;;;;;;;;;3.67;3.33;;;;;;;;5051993;28;45529;-70
2023/11/18 04:57:52;;;;;;;;;4.33;3.00;;;;;;;;5051235;28;46167;-71
2023/11/18 05:00:19;;;;;;;;;5.00;2.67;;;;;;;;5055842;28;45552;-70
2023/11/18 05:02:47;;;;;;;;;4.00;2.33;;;;;;;;5057658;28;45438;-73
2023/11/18 05:05:12;;;;;;;;;5.00;2.00;;;;;;;;5047576;28;45397;-70
2023/11/18 05:07:39;;;;;;;;;3.00;1.33;;;;;;;;5048113;28;46533;-71
2023/11/18 05:10:04;;;;;;;;;4.00;2.33;;;;;;;;5053871;28;45481;-73
2023/11/18 05:12:30;;;;;;;;;1.67;1.67;;;;;;;;5056778;28;45414;-70
2023/11/18 05:14:56;;;;;;;;;6.00;3.00;;;;;;;;5054744;28;45460;-70
2023/11/18 05:17:21;;;;;;;;;4.00;3.33;;;;;;;;5056910;28;46538;-69
2023/11/18 05:19:46;;;;;;;;;3.00;3.00;;;;;;;;5050650;28;45326;-70
2023/11/18 05:22:12;;;;;;;;;4.33;3.33;;;;;;;;5050610;28;45480;-70
2023/11/18 05:24:37;;;;;;;;;2.33;2.33;;;;;;;;5047125;28;45371;-70
2023/11/18 05:27:03;;;;;;;;;4.00;4.00;;;;;;;;5054412;28;45359;-69
2023/11/18 05:29:28;;;;;;;;;5.67;3.00;;;;;;;;5047019;28;45410;-69
2023/11/18 05:31:54;;;;;;;;;3.67;2.67;;;;;;;;5049602;28;45438;-72
2023/11/18 05:34:20;;;;;;;;;3.00;2.00;;;;;;;;5050922;28;45582;-70
2023/11/18 05:36:46;;;;;;;;;3.33;2.00;;;;;;;;5051662;28;46016;-70
2023/11/18 05:39:11;;;;;;;;;2.00;2.00;;;;;;;;5047385;28;45480;-71
2023/11/18 05:41:39;;;;;;;;;3.33;3.00;;;;;;;;5049042;28;45507;-70
2023/11/18 05:44:05;;;;;;;;;2.00;2.00;;;;;;;;5048444;28;45208;-70
2023/11/18 05:46:32;;;;;;;;;2.67;2.00;;;;;;;;5051636;28;46048;-70
2023/11/18 05:49:01;;;;;;;;;3.00;2.00;;;;;;;;5047317;28;45529;-74
2023/11/18 05:51:28;;;;;;;;;2.67;2.67;;;;;;;;5047800;28;45504;-72
2023/11/18 05:53:55;;;;;;;;;3.00;3.00;;;;;;;;5045392;28;45470;-70
2023/11/18 05:56:24;;;;;;;;;6.00;3.00;;;;;;;;5054607;28;46647;-70
2023/11/18 05:58:49;;;;;;;;;4.00;3.00;;;;;;;;5055823;28;45545;-70
2023/11/18 06:01:16;;;;;;;;;3.00;3.00;;;;;;;;5051292;28;45608;-70
2023/11/18 06:03:42;;;;;;;;;5.67;4.67;;;;;;;;5049161;28;45225;-70
2023/11/18 06:06:11;;;;;;;;;8.67;4.00;;;;;;;;5050774;28;45402;-70
2023/11/18 06:08:43;;;;;;;;;6.33;4.67;;;;;;;;5045618;28;45414;-71
2023/11/18 06:11:13;;;;;;;;;6.33;3.33;;;;;;;;5048559;28;45473;-73
2023/11/18 06:13:48;;;;;;;;;6.00;4.67;;;;;;;;5053263;28;45359;-73
2023/11/18 06:16:20;;;;;;;;;4.00;4.00;;;;;;;;5045611;28;47523;-71
2023/11/18 06:18:46;;;;;;;;;8.67;4.33;;;;;;;;5038788;28;45493;-71
2023/11/18 06:21:12;;;;;;;;;4.00;4.00;;;;;;;;5052080;28;45456;-70
2023/11/18 06:23:37;;;;;;;;;4.00;4.00;;;;;;;;5051042;28;45554;-70
2023/11/18 06:26:04;;;;;;;;;11.00;3.67;;;;;;;;5050530;28;46628;-70
2023/11/18 06:28:29;;;;;;;;;4.33;3.00;;;;;;;;5051396;28;46364;-70
2023/11/18 06:30:54;;;;;;;;;5.67;4.00;;;;;;;;5043229;28;45383;-73
2023/11/18 06:33:22;;;;;;;;;2.33;2.33;;;;;;;;5044893;28;45412;-70
2023/11/18 06:35:48;;;;;;;;;5.00;5.00;;;;;;;;5049642;28;46466;-70
2023/11/18 06:38:13;;;;;;;;;3.33;2.67;;;;;;;;5046590;28;45361;-70
2023/11/18 06:40:39;;;;;;;;;4.00;4.00;;;;;;;;5052833;28;45323;-71
2023/11/18 06:43:10;;;;;;;;;4.00;4.00;;;;;;;;5049399;28;45496;-70
2023/11/18 06:45:37;;;;;;;;;3.00;3.00;;;;;;;;5045947;28;46226;-70
2023/11/18 06:48:03;;;;;;;;;5.67;4.00;;;;;;;;5052421;28;45348;-70
2023/11/18 06:50:29;;;;;;;;;2.33;2.33;;;;;;;;5047443;28;45543;-72
2023/11/18 06:52:55;;;;;;;;;6.33;6.33;;;;;;;;5050616;28;45318;-70
2023/11/18 06:55:21;;;;;;;;;6.00;4.33;;;;;;;;5051429;28;45628;-70
2023/11/18 06:57:46;;;;;;;;;6.33;4.00;;;;;;;;5055659;28;45435;-70
2023/11/18 07:00:14;;;;;;;;;4.00;4.00;;;;;;;;5056436;28;45514;-70
2023/11/18 07:02:39;;;;;;;;;5.00;5.00;;;;;;;;5040982;28;45332;-70
2023/11/18 07:05:05;;;;;;;;;8.00;4.00;;;;;;;;5040604;28;46721;-73
2023/11/18 07:07:31;;;;;;;;;5.67;4.67;;;;;;;;5049496;28;45322;-70
2023/11/18 07:09:57;;;;;;;;;5.00;4.00;;;;;;;;5049225;28;45405;-69
2023/11/18 07:12:22;;;;;;;;;4.00;4.00;;;;;;;;5052502;28;45468;-71
2023/11/18 07:14:47;;;;;;;;;9.00;7.67;;;;;;;;5044452;28;47858;-70
2023/11/18 07:17:13;;;;;;;;;6.00;6.00;;;;;;;;5048551;28;45423;-71
2023/11/18 07:19:38;;;;;;;;;4.00;4.00;;;;;;;;5050965;28;45449;-70
2023/11/18 07:22:06;;;;;;;;;6.00;6.00;;;;;;;;5054916;28;45409;-70
2023/11/18 07:24:31;;;;;;;;;8.33;4.00;;;;;;;;5053703;28;47876;-71
2023/11/18 07:26:57;;;;;;;;;4.00;3.00;;;;;;;;5052256;28;45314;-70
2023/11/18 07:29:23;;;;;;;;;3.00;3.00;;;;;;;;5049280;28;45386;-70
2023/11/18 07:31:49;;;;;;;;;5.00;3.00;;;;;;;;5050979;28;45414;-70
2023/11/18 07:34:15;;;;;;;;;3.33;3.33;;;;;;;;5051323;28;46393;-70
2023/11/18 07:36:40;;;;;;;;;4.33;3.00;;;;;;;;5049164;28;45477;-70
2023/11/18 07:39:15;;;;;;;;;4.00;2.00;;;;;;;;5051894;28;45510;-73
2023/11/18 07:41:40;;;;;;;;;3.00;3.00;;;;;;;;5042139;28;45430;-70
2023/11/18 07:44:06;;;;;;;;;2.00;2.00;;;;;;;;5045267;28;46478;-70
2023/11/18 07:46:31;;;;;;;;;4.00;3.00;;;;;;;;5044547;28;45525;-70
2023/11/18 07:48:56;;;;;;;;;2.67;2.67;;;;;;;;5047228;28;45540;-71
2023/11/18 07:51:22;;;;;;;;;3.00;3.00;;;;;;;;5052445;22;45417;-71
2023/11/18 07:53:48;;;;;;;;;4.00;4.00;;;;;;;;5047766;28;47571;-71
2023/11/18 07:56:14;;;;;;;;;4.33;2.00;;;;;;;;5053762;28;45461;-71
2023/11/18 07:58:41;;;;;;;;;3.00;3.00;;;;;;;;5048432;28;45269;-71
2023/11/18 08:01:08;;;;;;;;;1.00;1.00;;;;;;;;5053277;28;45551;-71
2023/11/18 08:03:34;;;;;;;;;3.00;2.00;;;;;;;;5057870;28;46893;-72
2023/11/18 08:05:59;;;;;;;;;3.00;2.00;;;;;;;;5058723;28;45434;-71
2023/11/18 08:08:24;;;;;;;;;1.00;1.00;;;;;;;;5057636;28;45374;-70
2023/11/18 08:10:50;;;;;;;;;2.00;2.00;;;;;;;;5057022;28;45449;-73
2023/11/18 08:13:16;;;;;;;;;3.67;3.67;;;;;;;;5051018;28;45800;-71
2023/11/18 08:15:41;;;;;;;;;2.00;2.00;;;;;;;;5055914;28;45456;-71
2023/11/18 08:18:07;;;;;;;;;2.00;2.00;;;;;;;;5057965;28;45283;-70
2023/11/18 08:20:33;;;;;;;;;2.33;2.00;;;;;;;;5057546;28;45680;-70
2023/11/18 08:22:59;;;;;;;;;2.00;2.00;;;;;;;;5051577;28;45489;-70
2023/11/18 08:25:24;;;;;;;;;1.67;1.67;;;;;;;;5054067;28;45484;-72
2023/11/18 08:27:50;;;;;;;;;2.00;2.00;;;;;;;;5057393;28;45549;-72
2023/11/18 08:30:17;;;;;;;;;1.00;1.00;;;;;;;;5054052;28;45498;-71
2023/11/18 08:32:43;;;;;;;;;1.00;1.00;;;;;;;;5057375;28;46673;-71
2023/11/18 08:35:09;;;;;;;;;2.00;2.00;;;;;;;;5055182;28;45303;-71
2023/11/18 08:37:35;;;;;;;;;1.00;1.00;;;;;;;;5052145;28;45469;-71
2023/11/18 08:40:01;;;;;;;;;2.00;0.00;;;;;;;;5057848;28;45533;-70
2023/11/18 08:42:27;;;;;;;;;1.00;1.00;;;;;;;;5045349;28;46988;-71
2023/11/18 08:44:55;;;;;;;;;1.67;1.00;;;;;;;;5046689;28;46000;-72
2023/11/18 08:47:20;;;;;;;;;1.00;1.00;;;;;;;;5045085;28;45473;-71
2023/11/18 08:49:46;;;;;;;;;2.00;2.00;;;;;;;;5047669;28;45336;-71
2023/11/18 08:52:12;;;;;;;;;1.67;1.67;;;;;;;;5047821;28;47383;-73
2023/11/18 08:54:37;;;;;;;;;1.00;1.00;;;;;;;;5055570;28;45461;-74
2023/11/18 08:57:23;;;;;;;;;1.33;1.33;;;;;;;;5043826;28;45353;-74
2023/11/18 08:59:48;;;;;;;;;1.00;1.00;;;;;;;;5048078;28;45565;-75
2023/11/18 09:02:15;;;;;;;;;1.00;1.00;;;;;;;;5056552;28;46040;-73
2023/11/18 09:04:42;;;;;;;;;2.33;1.00;;;;;;;;5055124;28;45585;-74
2023/11/18 09:07:09;;;;;;;;;1.00;1.00;;;;;;;;5046395;28;45576;-70
2023/11/18 09:09:35;;;;;;;;;1.00;1.00;;;;;;;;5042110;28;45629;-71
2023/11/18 09:12:02;;;;;;;;;1.00;1.00;;;;;;;;5040914;28;46565;-72
2023/11/18 09:14:27;;;;;;;;;2.67;1.00;;;;;;;;5044650;28;45276;-71
2023/11/18 09:16:56;;;;;;;;;1.00;1.00;;;;;;;;5042912;28;45394;-72
2023/11/18 09:19:21;;;;;;;;;1.00;1.00;;;;;;;;5037379;28;45602;-72
2023/11/18 09:21:46;;;;;;;;;3.67;2.33;;;;;;;;5041332;28;47801;-71
2023/11/18 09:24:13;;;;;;;;;3.00;1.33;;;;;;;;5039220;28;45465;-71
2023/11/18 09:26:39;;;;;;;;;3.00;2.00;;;;;;;;5041760;28;45464;-70
2023/11/18 09:29:05;;;;;;;;;2.00;2.00;;;;;;;;5049042;28;45417;-71
2023/11/18 09:31:33;;;;;;;;;4.00;2.00;;;;;;;;5042537;28;47478;-71
2023/11/18 09:33:58;;;;;;;;;2.00;2.00;;;;;;;;5049097;28;45508;-73
2023/11/18 09:36:23;;;;;;;;;3.67;3.67;;;;;;;;5053013;28;45315;-73
2023/11/18 09:38:49;;;;;;;;;2.00;2.00;;;;;;;;5055718;28;45489;-72
2023/11/18 09:41:15;;;;;;;;;2.67;2.00;;;;;;;;5045745;28;46345;-71
2023/11/18 09:43:47;;;;;;;;;1.00;1.00;;;;;;;;5046176;28;45531;-72
2023/11/18 09:46:26;;;;;;;;;2.00;2.00;;;;;;;;5042810;28;45482;-72
2023/11/18 09:49:17;;;;;;;;;3.00;1.00;;;;;;;;5048766;28;45434;-74
2023/11/18 09:51:46;;;;;;;;;1.00;1.00;;;;;;;;5046675;28;47323;-73
2023/11/18 09:54:32;;;;;;;;;1.00;1.00;;;;;;;;5054589;28;45402;-72
2023/11/18 09:57:09;;;;;;;;;1.00;1.00;;;;;;;;5051710;28;45473;-77
2023/11/18 09:59:44;;;;;;;;;0.67;0.00;;;;;;;;5050037;28;45423;-73
2023/11/18 10:02:10;;;;;;;;;1.00;1.00;;;;;;;;5048082;28;45806;-71
2023/11/18 10:04:37;;;;;;;;;1.00;1.00;;;;;;;;5053426;28;45535;-73
2023/11/18 10:07:03;;;;;;;;;1.00;1.00;;;;;;;;5054833;28;45456;-75
2023/11/18 10:09:28;;;;;;;;;1.00;1.00;;;;;;;;5044569;28;45577;-73
2023/11/18 10:12:00;;;;;;;;;1.00;1.00;;;;;;;;5049149;28;46053;-74
2023/11/18 10:14:26;;;;;;;;;2.00;1.00;;;;;;;;5043195;28;45405;-74
2023/11/18 10:16:53;;;;;;;;;1.67;1.67;;;;;;;;5045093;28;45316;-73
2023/11/18 10:19:19;;;;;;;;;3.00;1.33;;;;;;;;5052669;28;45594;-74
2023/11/18 10:21:48;;;;;;;;;1.67;1.67;;;;;;;;5053565;28;46159;-73
2023/11/18 10:24:22;;;;;;;;;1.67;1.67;;;;;;;;5047307;28;45429;-74
2023/11/18 10:26:57;;;;;;;;;3.00;1.00;;;;;;;;5028836;28;47386;-72
2023/11/18 10:29:27;;;;;;;;;1.00;1.00;;;;;;;;5045755;28;46135;-73
2023/11/18 10:32:02;;;;;;;;;1.00;1.00;;;;;;;;5042225;28;46612;-72
2023/11/18 10:34:28;;;;;;;;;1.67;1.00;;;;;;;;5039398;28;46179;-72
2023/11/18 10:37:03;;;;;;;;;1.00;1.00;;;;;;;;5046268;28;45717;-72
2023/11/18 10:39:32;;;;;;;;;1.00;1.00;;;;;;;;5045883;28;45593;-74
2023/11/18 10:42:00;;;;;;;;;3.00;1.33;;;;;;;;5047138;28;45985;-72
2023/11/18 10:44:26;;;;;;;;;1.00;1.00;;;;;;;;5047614;28;45463;-72
2023/11/18 10:46:52;;;;;;;;;1.67;1.67;;;;;;;;5045906;28;45583;-73
2023/11/18 10:49:18;;;;;;;;;2.00;2.00;;;;;;;;5046974;28;45857;-73
2023/11/18 10:51:47;;;;;;;;;1.00;1.00;;;;;;;;5046974;28;46198;-72
2023/11/18 10:54:17;;;;;;;;;1.67;1.67;;;;;;;;5045146;28;47159;-71
2023/11/18 10:56:56;;;;;;;;;2.00;2.00;;;;;;;;5047626;28;45492;-71
2023/11/18 10:59:22;;;;;;;;;4.00;2.00;;;;;;;;5044468;28;45597;-75
2023/11/18 11:01:48;;;;;;;;;2.00;2.00;;;;;;;;5046504;28;45506;-72
2023/11/18 11:04:20;;;;;;;;;1.67;1.67;;;;;;;;5047884;28;45458;-72
2023/11/18 11:06:52;;;;;;;;;2.00;2.00;;;;;;;;5047115;28;45544;-72
2023/11/18 11:09:17;;;;;;;;;2.00;2.00;;;;;;;;5048161;28;46023;-73
2023/11/18 11:11:46;;;;;;;;;2.00;1.00;;;;;;;;5046178;28;45394;-74
2023/11/18 11:14:12;;;;;;;;;3.33;2.00;;;;;;;;5046597;28;45450;-74
2023/11/18 11:16:37;;;;;;;;;3.33;2.00;;;;;;;;5047532;28;45473;-73
2023/11/18 11:19:08;;;;;;;;;3.00;2.67;;;;;;;;5047095;28;45512;-73
2023/11/18 11:21:37;;;;;;;;;1.67;1.67;;;;;;;;5045670;28;46481;-73
2023/11/18 11:24:05;;;;;;;;;5.33;4.00;;;;;;;;5045515;28;45624;-72
2023/11/18 11:26:39;;;;;;;;;4.00;2.00;;;;;;;;5047491;28;45762;-71
2023/11/18 11:29:09;;;;;;;;;3.67;3.00;;;;;;;;5044440;28;45429;-72
2023/11/18 11:31:38;;;;;;;;;3.33;3.00;;;;;;;;5046095;28;46658;-72
2023/11/18 11:34:05;;;;;;;;;2.00;2.00;;;;;;;;5050086;28;45800;-72
2023/11/18 11:36:33;;;;;;;;;4.67;2.67;;;;;;;;5051242;28;45529;-67
2023/11/18 11:38:59;;;;;;;;;2.00;2.00;;;;;;;;5052201;28;45500;-68
2023/11/18 11:41:27;;;;;;;;;2.67;2.67;;;;;;;;5051144;28;46862;-69
2023/11/18 11:43:58;;;;;;;;;3.00;3.00;;;;;;;;5048132;28;45375;-70
2023/11/18 11:46:25;;;;;;;;;3.00;3.00;;;;;;;;5043939;28;45578;-69
2023/11/18 11:48:53;;;;;;;;;5.33;3.00;;;;;;;;5048079;28;45928;-69
2023/11/18 11:51:37;;;;;;;;;2.33;2.00;;;;;;;;5050239;28;46741;-69
2023/11/18 11:54:16;;;;;;;;;2.00;2.00;;;;;;;;5050015;28;45513;-69
2023/11/18 11:56:47;;;;;;;;;4.00;3.00;;;;;;;;5048814;28;45622;-67
2023/11/18 11:59:12;;;;;;;;;4.00;3.00;;;;;;;;5050874;28;45887;-69
2023/11/18 12:01:38;;;;;;;;;4.00;2.00;;;;;;;;5033886;28;45636;-71
2023/11/18 12:04:06;;;;;;;;;5.00;4.00;;;;;;;;5048610;28;45477;-69
2023/11/18 12:06:32;;;;;;;;;3.33;3.33;;;;;;;;5050662;28;45453;-69
2023/11/18 12:08:57;;;;;;;;;3.00;3.00;;;;;;;;5048700;28;45500;-69
2023/11/18 12:11:22;;;;;;;;;5.33;3.00;;;;;;;;5048424;28;46959;-68
2023/11/18 12:14:12;;;;;;;;;4.67;3.00;;;;;;;;5046549;28;45523;-69
2023/11/18 12:16:57;;;;;;;;;2.00;2.00;;;;;;;;5046268;28;45532;-69
2023/11/18 12:19:30;;;;;;;;;5.00;3.33;;;;;;;;5050691;28;45458;-68
2023/11/18 12:21:55;;;;;;;;;3.00;3.00;;;;;;;;5048372;28;45875;-70
2023/11/18 12:24:22;;;;;;;;;4.33;2.33;;;;;;;;5048780;28;45444;-69
2023/11/18 12:26:49;;;;;;;;;4.33;3.00;;;;;;;;5045749;28;45461;-69
2023/11/18 12:29:30;;;;;;;;;3.00;3.00;;;;;;;;5050378;28;46040;-69
2023/11/18 12:31:57;;;;;;;;;4.00;3.00;;;;;;;;5048813;28;46280;-69
2023/11/18 12:34:23;;;;;;;;;5.00;3.00;;;;;;;;5049100;28;45643;-69
2023/11/18 12:37:18;;;;;;;;;6.00;3.33;;;;;;;;5050660;28;45878;-69
2023/11/18 12:40:03;;;;;;;;;5.33;4.00;;;;;;;;5035615;28;45705;-70
2023/11/18 12:42:51;;;;;;;;;3.67;3.67;;;;;;;;5043276;28;45621;-69
2023/11/18 12:45:31;;;;;;;;;4.33;4.33;;;;;;;;5041732;28;45496;-70
2023/11/18 12:48:02;;;;;;;;;5.00;5.00;;;;;;;;5045692;28;45430;-71
2023/11/18 12:50:32;;;;;;;;;3.00;3.00;;;;;;;;5045979;28;45438;-69
2023/11/18 12:52:57;;;;;;;;;5.00;3.33;;;;;;;;5041353;28;46782;-68
2023/11/18 12:55:23;;;;;;;;;4.33;3.00;;;;;;;;5047843;28;45856;-71
2023/11/18 12:57:48;;;;;;;;;3.33;3.33;;;;;;;;5049393;28;45413;-71
2023/11/18 13:00:26;;;;;;;;;4.00;3.00;;;;;;;;5047046;28;45452;-70
2023/11/18 13:02:52;;;;;;;;;3.67;3.67;;;;;;;;5047113;28;46841;-69
2023/11/18 13:05:17;;;;;;;;;3.67;3.00;;;;;;;;5049751;28;45572;-70
2023/11/18 13:07:43;;;;;;;;;3.50;3.25;;;;;;;;5043963;28;45614;-69
2023/11/18 13:10:08;;;;;;;;;6.00;3.00;;;;;;;;5048409;28;45661;-69
2023/11/18 13:12:34;;;;;;;;;3.00;3.00;;;;;;;;5048316;28;45646;-68
2023/11/18 13:14:59;;;;;;;;;4.67;2.00;;;;;;;;5044378;28;45505;-69
2023/11/18 13:17:28;;;;;;;;;2.00;2.00;;;;;;;;5049592;28;45449;-68
2023/11/18 13:19:54;;;;;;;;;3.33;2.00;;;;;;;;5038697;28;45992;-69
2023/11/18 13:22:19;;;;;;;;;3.00;3.00;;;;;;;;5049141;28;47431;-71
2023/11/18 13:24:45;;;;;;;;;2.67;2.67;;;;;;;;5041372;28;45512;-69
2023/11/18 13:27:10;;;;;;;;;2.33;2.33;;;;;;;;5043901;28;45811;-69
2023/11/18 13:29:39;;;;;;;;;3.67;2.00;;;;;;;;5041012;28;45636;-71
2023/11/18 13:32:04;;;;;;;;;0.00;0.00;;;;;;;;5042585;28;46547;-69
2023/11/18 13:34:32;;;;;;;;;1.00;1.00;;;;;;;;5040633;28;45964;-69
2023/11/18 13:36:58;;;;;;;;;2.00;2.00;;;;;;;;5041202;28;45713;-71
2023/11/18 13:39:25;;;;;;;;;3.00;2.00;;;;;;;;5046850;28;45625;-69
2023/11/18 13:41:52;;;;;;;;;2.33;1.67;;;;;;;;5040183;28;45750;-69
2023/11/18 13:44:37;;;;;;;;;4.33;3.00;;;;;;;;5042888;28;45886;-70
2023/11/18 13:47:05;;;;;;;;;2.67;2.67;;;;;;;;5042962;28;45548;-69
2023/11/18 13:49:30;;;;;;;;;5.00;3.00;;;;;;;;5046484;28;45657;-70
2023/11/18 13:51:56;;;;;;;;;3.00;3.00;;;;;;;;5039007;28;45495;-68
2023/11/18 13:54:22;;;;;;;;;5.00;3.00;;;;;;;;5047733;28;46175;-71
2023/11/18 13:56:47;;;;;;;;;4.00;2.00;;;;;;;;5046391;28;45571;-70
2023/11/18 13:59:12;;;;;;;;;6.00;6.00;;;;;;;;5045222;28;45521;-69
2023/11/18 14:01:38;;;;;;;;;5.33;5.33;;;;;;;;5046837;28;47077;-69
2023/11/18 14:04:04;;;;;;;;;5.00;5.00;;;;;;;;5048404;28;45561;-69
2023/11/18 14:06:30;;;;;;;;;4.33;4.00;;;;;;;;5046734;28;45533;-69
2023/11/18 14:08:55;;;;;;;;;2.00;2.00;;;;;;;;5046569;28;45461;-69
2023/11/18 14:11:21;;;;;;;;;4.00;4.00;;;;;;;;5042604;28;46517;-69
2023/11/18 14:13:46;;;;;;;;;3.67;3.67;;;;;;;;5046032;28;45455;-68
2023/11/18 14:16:12;;;;;;;;;2.33;2.33;;;;;;;;5045022;28;45521;-69
2023/11/18 14:18:41;;;;;;;;;2.67;2.00;;;;;;;;5042770;28;45564;-69
2023/11/18 14:21:06;;;;;;;;;3.67;3.67;;;;;;;;5043595;28;46411;-68
2023/11/18 14:23:31;;;;;;;;;3.00;2.00;;;;;;;;5047973;28;45461;-70
2023/11/18 14:25:56;;;;;;;;;4.00;4.00;;;;;;;;5045860;28;45661;-69
2023/11/18 14:28:26;;;;;;;;;4.00;4.00;;;;;;;;5045648;28;45583;-69
2023/11/18 14:30:52;;;;;;;;;3.00;3.00;;;;;;;;5047112;28;47759;-70
2023/11/18 14:33:17;;;;;;;;;4.00;4.00;;;;;;;;5046177;28;45481;-69
2023/11/18 14:35:46;;;;;;;;;3.33;3.33;;;;;;;;5047605;28;45420;-70
2023/11/18 14:38:12;;;;;;;;;2.00;2.00;;;;;;;;5046890;28;45819;-70
2023/11/18 14:40:39;;;;;;;;;6.00;4.33;;;;;;;;5046002;28;48216;-69